sensor_id;sensor_type;location;lat;lon;timestamp;pressure;altitude;pressure_sealevel;temperature;humidity
33625;BME280;19962;47.820;1.930;2023-08-08T00:02:18;100807.66;;;17.67;79.02
33625;BME280;19962;47.820;1.930;2023-08-08T00:04:44;100810.44;;;17.72;79.10
33625;BME280;19962;47.820;1.930;2023-08-08T00:07:10;100806.56;;;17.73;79.09
33625;BME280;19962;47.820;1.930;2023-08-08T00:09:36;100802.41;;;17.70;79.10
33625;BME280;19962;47.820;1.930;2023-08-08T00:12:03;100805.72;;;17.72;78.88
33625;BME280;19962;47.820;1.930;2023-08-08T00:14:30;100798.50;;;17.66;79.16
33625;BME280;19962;47.820;1.930;2023-08-08T00:16:56;100801.53;;;17.70;79.09
33625;BME280;19962;47.820;1.930;2023-08-08T00:19:22;100797.97;;;17.74;78.86
33625;BME280;19962;47.820;1.930;2023-08-08T00:21:48;100804.06;;;17.76;78.77
33625;BME280;19962;47.820;1.930;2023-08-08T00:24:14;100805.75;;;17.77;78.79
33625;BME280;19962;47.820;1.930;2023-08-08T00:26:40;100795.47;;;17.78;79.12
33625;BME280;19962;47.820;1.930;2023-08-08T00:29:06;100798.25;;;17.78;79.11
33625;BME280;19962;47.820;1.930;2023-08-08T00:31:33;100794.63;;;17.72;78.92
33625;BME280;19962;47.820;1.930;2023-08-08T00:33:59;100789.38;;;17.76;79.07
33625;BME280;19962;47.820;1.930;2023-08-08T00:36:25;100792.44;;;17.74;78.75
33625;BME280;19962;47.820;1.930;2023-08-08T00:38:51;100792.91;;;17.61;78.92
33625;BME280;19962;47.820;1.930;2023-08-08T00:41:17;100796.25;;;17.63;78.65
33625;BME280;19962;47.820;1.930;2023-08-08T00:43:43;100799.88;;;17.64;78.70
33625;BME280;19962;47.820;1.930;2023-08-08T00:46:10;100787.38;;;17.61;79.05
33625;BME280;19962;47.820;1.930;2023-08-08T00:48:36;100777.66;;;17.64;79.19
33625;BME280;19962;47.820;1.930;2023-08-08T00:51:03;100782.38;;;17.68;79.19
33625;BME280;19962;47.820;1.930;2023-08-08T00:53:30;100775.19;;;17.67;78.97
33625;BME280;19962;47.820;1.930;2023-08-08T00:55:59;100772.13;;;17.69;79.41
33625;BME280;19962;47.820;1.930;2023-08-08T00:58:26;100772.69;;;17.71;78.89
33625;BME280;19962;47.820;1.930;2023-08-08T01:00:54;100777.94;;;17.67;78.69
33625;BME280;19962;47.820;1.930;2023-08-08T01:03:22;100775.19;;;17.67;78.73
33625;BME280;19962;47.820;1.930;2023-08-08T01:06:02;100772.13;;;17.69;78.71
33625;BME280;19962;47.820;1.930;2023-08-08T01:09:01;100761.88;;;17.69;78.49
33625;BME280;19962;47.820;1.930;2023-08-08T01:11:31;100765.75;;;17.68;78.31
33625;BME280;19962;47.820;1.930;2023-08-08T01:14:01;100764.09;;;17.67;78.41
33625;BME280;19962;47.820;1.930;2023-08-08T01:16:28;100757.13;;;17.65;78.62
33625;BME280;19962;47.820;1.930;2023-08-08T01:18:54;100766.31;;;17.65;78.91
33625;BME280;19962;47.820;1.930;2023-08-08T01:21:21;100769.63;;;17.67;78.96
33625;BME280;19962;47.820;1.930;2023-08-08T01:26:22;100754.63;;;17.63;78.73
33625;BME280;19962;47.820;1.930;2023-08-08T01:28:53;100752.97;;;17.67;78.51
33625;BME280;19962;47.820;1.930;2023-08-08T01:31:20;100756.88;;;17.66;78.61
33625;BME280;19962;47.820;1.930;2023-08-08T01:33:47;100754.63;;;17.63;79.08
33625;BME280;19962;47.820;1.930;2023-08-08T01:36:22;100757.13;;;17.65;79.06
33625;BME280;19962;47.820;1.930;2023-08-08T01:38:52;100759.63;;;17.66;78.85
33625;BME280;19962;47.820;1.930;2023-08-08T01:41:20;100757.41;;;17.68;78.63
33625;BME280;19962;47.820;1.930;2023-08-08T01:43:47;100758.50;;;17.57;78.81
33625;BME280;19962;47.820;1.930;2023-08-08T01:46:13;100757.38;;;17.53;78.90
33625;BME280;19962;47.820;1.930;2023-08-08T01:48:40;100763.16;;;17.47;78.89
33625;BME280;19962;47.820;1.930;2023-08-08T01:51:06;100764.28;;;17.51;78.81
33625;BME280;19962;47.820;1.930;2023-08-08T01:53:32;100761.81;;;17.59;78.46
33625;BME280;19962;47.820;1.930;2023-08-08T01:55:58;100768.50;;;17.63;78.47
33625;BME280;19962;47.820;1.930;2023-08-08T01:58:24;100759.63;;;17.61;78.35
33625;BME280;19962;47.820;1.930;2023-08-08T02:00:50;100768.50;;;17.63;78.71
33625;BME280;19962;47.820;1.930;2023-08-08T02:03:16;100761.28;;;17.62;78.69
33625;BME280;19962;47.820;1.930;2023-08-08T02:05:42;100769.06;;;17.60;78.66
33625;BME280;19962;47.820;1.930;2023-08-08T02:08:08;100770.16;;;17.59;78.44
33625;BME280;19962;47.820;1.930;2023-08-08T02:10:35;100773.75;;;17.60;78.33
33625;BME280;19962;47.820;1.930;2023-08-08T02:13:01;100772.38;;;17.62;78.47
33625;BME280;19962;47.820;1.930;2023-08-08T02:15:27;100767.38;;;17.64;78.09
33625;BME280;19962;47.820;1.930;2023-08-08T02:17:53;100762.69;;;17.65;78.07
33625;BME280;19962;47.820;1.930;2023-08-08T02:20:19;100764.63;;;17.64;78.48
33625;BME280;19962;47.820;1.930;2023-08-08T02:22:45;100770.16;;;17.64;78.41
33625;BME280;19962;47.820;1.930;2023-08-08T02:25:12;100769.91;;;17.66;78.04
33625;BME280;19962;47.820;1.930;2023-08-08T02:27:38;100767.13;;;17.66;78.13
33625;BME280;19962;47.820;1.930;2023-08-08T02:30:04;100763.50;;;17.60;78.34
33625;BME280;19962;47.820;1.930;2023-08-08T02:32:30;100769.06;;;17.60;78.45
33625;BME280;19962;47.820;1.930;2023-08-08T02:34:57;100766.25;;;17.55;78.79
33625;BME280;19962;47.820;1.930;2023-08-08T02:37:23;100772.09;;;17.59;78.46
33625;BME280;19962;47.820;1.930;2023-08-08T02:39:49;100765.69;;;17.58;78.52
33625;BME280;19962;47.820;1.930;2023-08-08T02:42:15;100768.75;;;17.57;78.82
33625;BME280;19962;47.820;1.930;2023-08-08T02:44:41;100777.91;;;17.52;78.93
33625;BME280;19962;47.820;1.930;2023-08-08T02:47:07;100772.63;;;17.51;79.01
33625;BME280;19962;47.820;1.930;2023-08-08T02:49:34;100779.81;;;17.52;78.92
33625;BME280;19962;47.820;1.930;2023-08-08T02:52:01;100773.41;;;17.46;78.99
33625;BME280;19962;47.820;1.930;2023-08-08T02:54:27;100773.13;;;17.42;79.18
33625;BME280;19962;47.820;1.930;2023-08-08T02:56:54;100770.59;;;17.41;79.44
33625;BME280;19962;47.820;1.930;2023-08-08T02:59:20;100769.44;;;17.37;79.17
33625;BME280;19962;47.820;1.930;2023-08-08T03:01:46;100770.78;;;17.29;79.55
33625;BME280;19962;47.820;1.930;2023-08-08T03:04:13;100766.91;;;17.30;79.48
33625;BME280;19962;47.820;1.930;2023-08-08T03:06:39;100781.63;;;17.31;79.55
33625;BME280;19962;47.820;1.930;2023-08-08T03:09:05;100775.56;;;17.34;79.29
33625;BME280;19962;47.820;1.930;2023-08-08T03:11:31;100773.38;;;17.41;78.91
33625;BME280;19962;47.820;1.930;2023-08-08T03:13:57;100762.25;;;17.36;79.29
33625;BME280;19962;47.820;1.930;2023-08-08T03:16:23;100768.63;;;17.36;79.53
33625;BME280;19962;47.820;1.930;2023-08-08T03:18:50;100767.78;;;17.36;79.41
33625;BME280;19962;47.820;1.930;2023-08-08T03:21:16;100768.03;;;17.29;79.55
33625;BME280;19962;47.820;1.930;2023-08-08T03:23:43;100774.06;;;17.21;79.60
33625;BME280;19962;47.820;1.930;2023-08-08T03:26:10;100769.91;;;17.19;80.12
33625;BME280;19962;47.820;1.930;2023-08-08T03:28:36;100769.09;;;17.18;80.12
33625;BME280;19962;47.820;1.930;2023-08-08T03:31:02;100770.47;;;17.16;80.04
33625;BME280;19962;47.820;1.930;2023-08-08T03:33:29;100762.44;;;17.19;80.10
33625;BME280;19962;47.820;1.930;2023-08-08T03:35:55;100761.59;;;17.19;80.17
33625;BME280;19962;47.820;1.930;2023-08-08T03:38:21;100763.28;;;17.20;80.47
33625;BME280;19962;47.820;1.930;2023-08-08T03:40:47;100757.16;;;17.23;80.36
33625;BME280;19962;47.820;1.930;2023-08-08T03:43:13;100764.94;;;17.21;80.59
33625;BME280;19962;47.820;1.930;2023-08-08T03:45:39;100766.59;;;17.22;80.66
33625;BME280;19962;47.820;1.930;2023-08-08T03:48:06;100758.31;;;17.27;80.87
33625;BME280;19962;47.820;1.930;2023-08-08T03:50:32;100753.03;;;17.30;80.70
33625;BME280;19962;47.820;1.930;2023-08-08T03:52:58;100750.00;;;17.32;81.02
33625;BME280;19962;47.820;1.930;2023-08-08T03:55:24;100748.38;;;17.36;80.91
33625;BME280;19962;47.820;1.930;2023-08-08T03:57:51;100747.00;;;17.38;80.74
33625;BME280;19962;47.820;1.930;2023-08-08T04:00:17;100737.84;;;17.38;80.98
33625;BME280;19962;47.820;1.930;2023-08-08T04:02:43;100739.50;;;17.34;81.07
33625;BME280;19962;47.820;1.930;2023-08-08T04:05:09;100743.66;;;17.31;81.25
33625;BME280;19962;47.820;1.930;2023-08-08T04:07:35;100748.34;;;17.31;81.17
33625;BME280;19962;47.820;1.930;2023-08-08T04:10:02;100744.19;;;17.28;81.26
33625;BME280;19962;47.820;1.930;2023-08-08T04:12:28;100745.00;;;17.24;81.50
33625;BME280;19962;47.820;1.930;2023-08-08T04:14:55;100744.94;;;17.19;81.93
33625;BME280;19962;47.820;1.930;2023-08-08T04:17:21;100749.94;;;17.17;81.79
33625;BME280;19962;47.820;1.930;2023-08-08T04:19:47;100753.25;;;17.14;82.17
33625;BME280;19962;47.820;1.930;2023-08-08T04:22:14;100743.81;;;17.15;82.05
33625;BME280;19962;47.820;1.930;2023-08-08T04:24:41;100748.28;;;17.16;81.69
33625;BME280;19962;47.820;1.930;2023-08-08T04:27:07;100741.00;;;17.10;82.53
33625;BME280;19962;47.820;1.930;2023-08-08T04:29:33;100743.25;;;17.13;82.49
33625;BME280;19962;47.820;1.930;2023-08-08T04:31:59;100732.72;;;17.15;82.62
33625;BME280;19962;47.820;1.930;2023-08-08T04:34:25;100741.00;;;17.10;82.42
33625;BME280;19962;47.820;1.930;2023-08-08T04:36:52;100742.34;;;17.02;82.88
33625;BME280;19962;47.820;1.930;2023-08-08T04:39:18;100745.41;;;17.06;82.62
33625;BME280;19962;47.820;1.930;2023-08-08T04:41:44;100752.34;;;17.03;82.81
33625;BME280;19962;47.820;1.930;2023-08-08T04:44:10;100749.63;;;17.08;82.78
33625;BME280;19962;47.820;1.930;2023-08-08T04:46:36;100756.56;;;17.11;82.71
33625;BME280;19962;47.820;1.930;2023-08-08T04:49:02;100751.88;;;17.16;82.59
33625;BME280;19962;47.820;1.930;2023-08-08T04:51:28;100760.75;;;17.18;82.35
33625;BME280;19962;47.820;1.930;2023-08-08T04:53:54;100772.13;;;17.17;82.46
33625;BME280;19962;47.820;1.930;2023-08-08T04:56:21;100767.13;;;17.19;81.94
33625;BME280;19962;47.820;1.930;2023-08-08T04:58:47;100761.59;;;17.19;81.78
33625;BME280;19962;47.820;1.930;2023-08-08T05:01:13;100761.59;;;17.19;81.92
33625;BME280;19962;47.820;1.930;2023-08-08T05:03:41;100764.94;;;17.21;82.19
33625;BME280;19962;47.820;1.930;2023-08-08T05:06:07;100758.88;;;17.24;81.95
33625;BME280;19962;47.820;1.930;2023-08-08T05:08:34;100760.53;;;17.25;81.79
33625;BME280;19962;47.820;1.930;2023-08-08T05:11:00;100756.91;;;17.24;82.08
33625;BME280;19962;47.820;1.930;2023-08-08T05:13:26;100756.13;;;17.29;81.90
33625;BME280;19962;47.820;1.930;2023-08-08T05:15:52;100758.31;;;17.27;81.54
33625;BME280;19962;47.820;1.930;2023-08-08T05:18:18;100763.31;;;17.30;81.36
33625;BME280;19962;47.820;1.930;2023-08-08T05:20:45;100760.03;;;17.33;81.19
33625;BME280;19962;47.820;1.930;2023-08-08T05:23:11;100763.63;;;17.33;81.26
33625;BME280;19962;47.820;1.930;2023-08-08T05:25:37;100769.16;;;17.33;81.38
33625;BME280;19962;47.820;1.930;2023-08-08T05:28:03;100775.00;;;17.37;81.07
33625;BME280;19962;47.820;1.930;2023-08-08T05:30:30;100764.75;;;17.37;81.00
33625;BME280;19962;47.820;1.930;2023-08-08T05:32:56;100787.16;;;17.31;81.17
33625;BME280;19962;47.820;1.930;2023-08-08T05:35:22;100785.50;;;17.30;80.96
33625;BME280;19962;47.820;1.930;2023-08-08T05:37:48;100782.16;;;17.28;81.23
33625;BME280;19962;47.820;1.930;2023-08-08T05:40:14;100783.28;;;17.32;81.46
33625;BME280;19962;47.820;1.930;2023-08-08T05:42:40;100788.31;;;17.35;81.47
33625;BME280;19962;47.820;1.930;2023-08-08T05:45:07;100775.56;;;17.39;81.16
33625;BME280;19962;47.820;1.930;2023-08-08T05:47:33;100780.03;;;17.40;81.13
33625;BME280;19962;47.820;1.930;2023-08-08T05:49:59;100774.25;;;17.47;80.77
33625;BME280;19962;47.820;1.930;2023-08-08T05:52:25;100768.44;;;17.48;80.48
33625;BME280;19962;47.820;1.930;2023-08-08T05:54:51;100764.03;;;17.57;80.67
33625;BME280;19962;47.820;1.930;2023-08-08T05:57:18;100763.53;;;17.65;80.53
33625;BME280;19962;47.820;1.930;2023-08-08T05:59:44;100768.50;;;17.68;80.21
33625;BME280;19962;47.820;1.930;2023-08-08T06:02:10;100776.81;;;17.63;80.27
33625;BME280;19962;47.820;1.930;2023-08-08T06:04:37;100777.41;;;17.65;80.24
33625;BME280;19962;47.820;1.930;2023-08-08T06:07:03;100773.25;;;17.73;80.04
33625;BME280;19962;47.820;1.930;2023-08-08T06:09:29;100779.66;;;17.73;79.77
33625;BME280;19962;47.820;1.930;2023-08-08T06:11:57;100774.66;;;17.70;79.95
33625;BME280;19962;47.820;1.930;2023-08-08T06:14:23;100790.19;;;17.76;80.31
33625;BME280;19962;47.820;1.930;2023-08-08T06:16:49;100782.44;;;17.78;80.25
33625;BME280;19962;47.820;1.930;2023-08-08T06:19:15;100780.75;;;17.77;80.54
33625;BME280;19962;47.820;1.930;2023-08-08T06:21:42;100776.91;;;17.83;80.25
33625;BME280;19962;47.820;1.930;2023-08-08T06:24:08;100783.88;;;17.96;79.77
33625;BME280;19962;47.820;1.930;2023-08-08T06:26:34;100782.50;;;17.98;79.71
33625;BME280;19962;47.820;1.930;2023-08-08T06:29:00;100788.59;;;17.95;79.59
33625;BME280;19962;47.820;1.930;2023-08-08T06:31:27;100779.47;;;18.00;79.70
33625;BME280;19962;47.820;1.930;2023-08-08T06:33:53;100782.00;;;18.11;79.51
33625;BME280;19962;47.820;1.930;2023-08-08T06:36:19;100777.56;;;18.15;79.42
33625;BME280;19962;47.820;1.930;2023-08-08T06:38:45;100775.06;;;18.24;79.34
33625;BME280;19962;47.820;1.930;2023-08-08T06:41:11;100782.84;;;18.27;78.79
33625;BME280;19962;47.820;1.930;2023-08-08T06:43:37;100777.56;;;18.25;78.88
33625;BME280;19962;47.820;1.930;2023-08-08T06:46:04;100780.63;;;18.29;79.14
33625;BME280;19962;47.820;1.930;2023-08-08T06:48:30;100774.03;;;18.35;78.55
33625;BME280;19962;47.820;1.930;2023-08-08T06:50:56;100777.06;;;18.43;78.35
33625;BME280;19962;47.820;1.930;2023-08-08T06:53:23;100778.50;;;18.56;78.16
33625;BME280;19962;47.820;1.930;2023-08-08T06:55:49;100779.88;;;18.73;77.34
33625;BME280;19962;47.820;1.930;2023-08-08T06:58:15;100765.16;;;18.88;77.15
33625;BME280;19962;47.820;1.930;2023-08-08T07:00:42;100770.94;;;19.01;76.87
33625;BME280;19962;47.820;1.930;2023-08-08T07:03:08;100770.38;;;19.09;76.83
33625;BME280;19962;47.820;1.930;2023-08-08T07:05:34;100768.69;;;19.18;76.38
33625;BME280;19962;47.820;1.930;2023-08-08T07:08:00;100767.03;;;19.22;76.09
33625;BME280;19962;47.820;1.930;2023-08-08T07:10:27;100762.59;;;19.26;76.00
33625;BME280;19962;47.820;1.930;2023-08-08T07:12:53;100772.88;;;19.36;75.69
33625;BME280;19962;47.820;1.930;2023-08-08T07:15:20;100772.56;;;19.42;75.52
33625;BME280;19962;47.820;1.930;2023-08-08T07:17:46;100787.88;;;19.45;75.58
33625;BME280;19962;47.820;1.930;2023-08-08T07:20:12;100780.38;;;19.40;75.69
33625;BME280;19962;47.820;1.930;2023-08-08T07:22:41;100772.06;;;19.30;76.07
33625;BME280;19962;47.820;1.930;2023-08-08T07:25:08;100771.75;;;19.27;76.31
33625;BME280;19962;47.820;1.930;2023-08-08T07:27:34;100772.59;;;19.32;76.07
33625;BME280;19962;47.820;1.930;2023-08-08T07:30:00;100765.31;;;19.41;75.63
33625;BME280;19962;47.820;1.930;2023-08-08T07:32:27;100778.38;;;19.56;74.74
33625;BME280;19962;47.820;1.930;2023-08-08T07:34:53;100775.28;;;19.62;74.45
33625;BME280;19962;47.820;1.930;2023-08-08T07:37:19;100766.88;;;19.72;73.89
33625;BME280;19962;47.820;1.930;2023-08-08T07:39:45;100767.91;;;19.91;73.03
33625;BME280;19962;47.820;1.930;2023-08-08T07:42:11;100771.50;;;19.97;72.74
33625;BME280;19962;47.820;1.930;2023-08-08T07:44:37;100767.28;;;20.04;72.50
33625;BME280;19962;47.820;1.930;2023-08-08T07:47:04;100763.91;;;20.12;71.90
33625;BME280;19962;47.820;1.930;2023-08-08T07:49:30;100756.09;;;20.19;72.27
33625;BME280;19962;47.820;1.930;2023-08-08T07:51:56;100759.13;;;20.23;71.97
33625;BME280;19962;47.820;1.930;2023-08-08T07:54:23;100758.28;;;20.22;71.97
33625;BME280;19962;47.820;1.930;2023-08-08T07:56:49;100757.13;;;20.28;71.52
33625;BME280;19962;47.820;1.930;2023-08-08T07:59:15;100752.09;;;20.30;70.77
33625;BME280;19962;47.820;1.930;2023-08-08T08:01:42;100754.03;;;20.35;70.43
33625;BME280;19962;47.820;1.930;2023-08-08T08:04:08;100751.44;;;20.43;70.10
33625;BME280;19962;47.820;1.930;2023-08-08T08:06:34;100743.66;;;20.40;70.48
33625;BME280;19962;47.820;1.930;2023-08-08T08:09:00;100739.22;;;20.39;70.03
33625;BME280;19962;47.820;1.930;2023-08-08T08:11:26;100730.81;;;20.44;70.08
33625;BME280;19962;47.820;1.930;2023-08-08T08:13:52;100727.16;;;20.49;69.85
33625;BME280;19962;47.820;1.930;2023-08-08T08:16:18;100724.91;;;20.51;69.57
33625;BME280;19962;47.820;1.930;2023-08-08T08:18:44;100730.81;;;20.44;69.95
33625;BME280;19962;47.820;1.930;2023-08-08T08:21:10;100724.78;;;20.32;70.37
33625;BME280;19962;47.820;1.930;2023-08-08T08:23:38;100731.53;;;20.21;70.76
33625;BME280;19962;47.820;1.930;2023-08-08T08:26:05;100734.41;;;20.11;70.89
33625;BME280;19962;47.820;1.930;2023-08-08T08:28:31;100723.88;;;19.98;71.01
33625;BME280;19962;47.820;1.930;2023-08-08T08:31:03;100718.34;;;19.93;71.13
33625;BME280;19962;47.820;1.930;2023-08-08T08:33:29;100719.47;;;19.92;70.99
33625;BME280;19962;47.820;1.930;2023-08-08T08:35:55;100729.47;;;19.93;70.76
33625;BME280;19962;47.820;1.930;2023-08-08T08:38:21;100734.19;;;19.93;70.33
33625;BME280;19962;47.820;1.930;2023-08-08T08:40:48;100729.22;;;19.90;69.76
33625;BME280;19962;47.820;1.930;2023-08-08T08:43:15;100742.03;;;19.91;70.15
33625;BME280;19962;47.820;1.930;2023-08-08T08:45:43;100732.25;;;19.93;69.56
33625;BME280;19962;47.820;1.930;2023-08-08T08:48:15;100742.84;;;19.96;69.15
33625;BME280;19962;47.820;1.930;2023-08-08T08:50:42;100741.72;;;19.97;68.85
33625;BME280;19962;47.820;1.930;2023-08-08T08:53:10;100746.41;;;20.02;68.30
33625;BME280;19962;47.820;1.930;2023-08-08T08:55:37;100742.19;;;20.04;67.42
33625;BME280;19962;47.820;1.930;2023-08-08T08:58:04;100755.31;;;20.04;66.54
33625;BME280;19962;47.820;1.930;2023-08-08T09:00:31;100761.16;;;20.02;66.11
33625;BME280;19962;47.820;1.930;2023-08-08T09:02:57;100742.19;;;20.04;66.32
33625;BME280;19962;47.820;1.930;2023-08-08T09:05:25;100727.19;;;20.05;65.55
33625;BME280;19962;47.820;1.930;2023-08-08T09:07:52;100745.56;;;20.06;65.54
33625;BME280;19962;47.820;1.930;2023-08-08T09:10:19;100739.97;;;20.11;65.41
33625;BME280;19962;47.820;1.930;2023-08-08T09:12:45;100733.81;;;20.19;65.12
33625;BME280;19962;47.820;1.930;2023-08-08T09:15:12;100736.56;;;20.24;64.68
33625;BME280;19962;47.820;1.930;2023-08-08T09:17:45;100736.31;;;20.21;63.06
33625;BME280;19962;47.820;1.930;2023-08-08T09:20:14;100741.59;;;20.17;60.89
33625;BME280;19962;47.820;1.930;2023-08-08T09:22:41;100737.13;;;20.21;62.48
33625;BME280;19962;47.820;1.930;2023-08-08T09:25:07;100733.47;;;20.26;62.43
33625;BME280;19962;47.820;1.930;2023-08-08T09:27:34;100738.97;;;20.36;62.42
33625;BME280;19962;47.820;1.930;2023-08-08T09:30:01;100731.94;;;20.43;62.09
33625;BME280;19962;47.820;1.930;2023-08-08T09:32:32;100728.56;;;20.46;61.43
33625;BME280;19962;47.820;1.930;2023-08-08T09:34:58;100721.84;;;20.52;61.84
33625;BME280;19962;47.820;1.930;2023-08-08T09:37:25;100734.34;;;20.55;62.19
33625;BME280;19962;47.820;1.930;2023-08-08T09:40:01;100737.69;;;20.57;61.68
33625;BME280;19962;47.820;1.930;2023-08-08T09:42:29;100724.84;;;20.56;61.81
33625;BME280;19962;47.820;1.930;2023-08-08T09:44:57;100725.66;;;20.61;61.70
33625;BME280;19962;47.820;1.930;2023-08-08T09:47:24;100729.75;;;20.69;61.19
33625;BME280;19962;47.820;1.930;2023-08-08T09:49:51;100728.34;;;20.71;60.12
33625;BME280;19962;47.820;1.930;2023-08-08T09:52:17;100729.69;;;20.79;60.68
33625;BME280;19962;47.820;1.930;2023-08-08T09:54:44;100732.66;;;20.92;60.43
33625;BME280;19962;47.820;1.930;2023-08-08T09:57:12;100717.00;;;20.96;59.97
33625;BME280;19962;47.820;1.930;2023-08-08T09:59:40;100717.22;;;21.00;59.37
33625;BME280;19962;47.820;1.930;2023-08-08T10:02:09;100723.59;;;21.05;58.36
33625;BME280;19962;47.820;1.930;2023-08-08T10:04:39;100722.72;;;21.10;57.32
33625;BME280;19962;47.820;1.930;2023-08-08T10:07:05;100719.03;;;21.14;57.16
33625;BME280;19962;47.820;1.930;2023-08-08T10:09:31;100730.47;;;21.13;56.91
33625;BME280;19962;47.820;1.930;2023-08-08T10:11:59;100731.31;;;21.13;57.21
33625;BME280;19962;47.820;1.930;2023-08-08T10:14:34;100728.75;;;21.17;55.87
33625;BME280;19962;47.820;1.930;2023-08-08T10:17:03;100716.97;;;21.25;55.12
33625;BME280;19962;47.820;1.930;2023-08-08T10:19:30;100711.09;;;21.26;54.61
33625;BME280;19962;47.820;1.930;2023-08-08T10:21:58;100718.91;;;21.24;55.07
33625;BME280;19962;47.820;1.930;2023-08-08T10:24:25;100716.66;;;21.26;55.53
33625;BME280;19962;47.820;1.930;2023-08-08T10:26:59;100712.75;;;21.27;54.96
33625;BME280;19962;47.820;1.930;2023-08-08T10:29:28;100714.28;;;21.38;55.88
33625;BME280;19962;47.820;1.930;2023-08-08T10:32:03;100712.38;;;21.57;55.08
33625;BME280;19962;47.820;1.930;2023-08-08T10:34:43;100711.06;;;21.73;53.47
33625;BME280;19962;47.820;1.930;2023-08-08T10:37:11;100713.19;;;21.81;53.78
33625;BME280;19962;47.820;1.930;2023-08-08T10:39:57;100717.72;;;21.77;52.50
33625;BME280;19962;47.820;1.930;2023-08-08T10:42:28;100703.94;;;21.62;53.61
33625;BME280;19962;47.820;1.930;2023-08-08T10:44:56;100701.56;;;21.51;53.56
33625;BME280;19962;47.820;1.930;2023-08-08T10:47:30;100706.09;;;21.47;53.50
33625;BME280;19962;47.820;1.930;2023-08-08T10:50:21;100701.38;;;21.42;52.99
33625;BME280;19962;47.820;1.930;2023-08-08T10:55:22;100705.59;;;21.63;52.75
33625;BME280;19962;47.820;1.930;2023-08-08T10:58:07;100699.78;;;21.60;52.75
33625;BME280;19962;47.820;1.930;2023-08-08T11:00:37;100706.38;;;21.69;52.27
33625;BME280;19962;47.820;1.930;2023-08-08T11:03:05;100697.03;;;21.78;52.56
33625;BME280;19962;47.820;1.930;2023-08-08T11:05:33;100704.31;;;21.79;53.07
33625;BME280;19962;47.820;1.930;2023-08-08T11:08:00;100700.00;;;21.87;52.35
33625;BME280;19962;47.820;1.930;2023-08-08T11:10:27;100689.50;;;21.97;52.52
33625;BME280;19962;47.820;1.930;2023-08-08T11:13:04;100693.72;;;22.13;52.22
33625;BME280;19962;47.820;1.930;2023-08-08T11:15:33;100697.75;;;22.07;51.95
33625;BME280;19962;47.820;1.930;2023-08-08T11:18:00;100691.09;;;22.03;51.50
33625;BME280;19962;47.820;1.930;2023-08-08T11:20:33;100691.31;;;22.07;51.20
33625;BME280;19962;47.820;1.930;2023-08-08T11:23:00;100692.06;;;22.12;50.99
33625;BME280;19962;47.820;1.930;2023-08-08T11:25:28;100683.47;;;22.09;51.20
33625;BME280;19962;47.820;1.930;2023-08-08T11:27:55;100682.47;;;22.18;51.82
33625;BME280;19962;47.820;1.930;2023-08-08T11:30:22;100674.34;;;22.35;51.21
33625;BME280;19962;47.820;1.930;2023-08-08T11:32:50;100662.59;;;22.38;50.13
33625;BME280;19962;47.820;1.930;2023-08-08T11:35:17;100665.78;;;22.50;49.84
33625;BME280;19962;47.820;1.930;2023-08-08T11:37:45;100666.81;;;22.54;49.07
33625;BME280;19962;47.820;1.930;2023-08-08T11:40:13;100665.88;;;22.40;48.47
33625;BME280;19962;47.820;1.930;2023-08-08T11:42:40;100659.28;;;22.36;49.28
33625;BME280;19962;47.820;1.930;2023-08-08T11:45:09;100652.00;;;22.35;49.37
33625;BME280;19962;47.820;1.930;2023-08-08T11:47:35;100659.13;;;22.46;49.45
33625;BME280;19962;47.820;1.930;2023-08-08T11:50:06;100655.94;;;22.66;48.99
33625;BME280;19962;47.820;1.930;2023-08-08T11:52:34;100658.16;;;22.69;49.17
33625;BME280;19962;47.820;1.930;2023-08-08T11:55:00;100657.69;;;22.62;48.73
33625;BME280;19962;47.820;1.930;2023-08-08T11:57:27;100659.38;;;22.63;48.94
33625;BME280;19962;47.820;1.930;2023-08-08T11:59:54;100658.25;;;22.78;48.41
33625;BME280;19962;47.820;1.930;2023-08-08T12:02:22;100660.75;;;22.79;48.18
33625;BME280;19962;47.820;1.930;2023-08-08T12:04:48;100666.69;;;22.91;48.37
33625;BME280;19962;47.820;1.930;2023-08-08T12:07:14;100659.22;;;23.14;48.17
33625;BME280;19962;47.820;1.930;2023-08-08T12:09:42;100650.56;;;23.29;47.96
33625;BME280;19962;47.820;1.930;2023-08-08T12:12:09;100645.69;;;23.34;47.82
33625;BME280;19962;47.820;1.930;2023-08-08T12:14:38;100646.22;;;23.36;47.41
33625;BME280;19962;47.820;1.930;2023-08-08T12:17:05;100645.69;;;23.34;47.51
33625;BME280;19962;47.820;1.930;2023-08-08T12:19:31;100650.16;;;23.35;47.59
33625;BME280;19962;47.820;1.930;2023-08-08T12:21:57;100649.50;;;23.38;47.58
33625;BME280;19962;47.820;1.930;2023-08-08T12:24:24;100640.50;;;23.55;47.32
33625;BME280;19962;47.820;1.930;2023-08-08T12:26:50;100623.31;;;23.83;47.08
33625;BME280;19962;47.820;1.930;2023-08-08T12:29:16;100634.59;;;23.78;47.08
33625;BME280;19962;47.820;1.930;2023-08-08T12:31:42;100639.75;;;23.49;47.34
33625;BME280;19962;47.820;1.930;2023-08-08T12:34:08;100653.13;;;23.25;47.70
33625;BME280;19962;47.820;1.930;2023-08-08T12:36:34;100640.47;;;23.14;47.89
33625;BME280;19962;47.820;1.930;2023-08-08T12:39:00;100634.03;;;23.14;47.83
33625;BME280;19962;47.820;1.930;2023-08-08T12:41:26;100630.56;;;23.22;47.79
33625;BME280;19962;47.820;1.930;2023-08-08T12:43:53;100621.84;;;23.23;48.00
33625;BME280;19962;47.820;1.930;2023-08-08T12:46:19;100625.06;;;23.30;47.39
33625;BME280;19962;47.820;1.930;2023-08-08T12:48:45;100619.25;;;23.27;47.32
33625;BME280;19962;47.820;1.930;2023-08-08T12:51:11;100608.28;;;23.30;46.70
33625;BME280;19962;47.820;1.930;2023-08-08T12:53:37;100602.56;;;23.22;46.72
33625;BME280;19962;47.820;1.930;2023-08-08T12:56:03;100609.06;;;23.17;46.87